Thunder radar more information blitzortung!


Radar de pluja more information rain snow radar


Visita la nostra xarxa de llocs de meteo:

Template documentation
and downloads

And another site



No particular awareness of the weather is required.    There are no Weather-warnings

Pagina Historial Weather Underground text

Diari Resum Setembre 2, 2017 Unitats:  Imperial    Mètric   Tant
« Previous Dia
SegĂźent Dia »
Diari Setmana Mensual Anual Personalitzada
  Maxima: Minima: Media:
Temperatura: TemperatureC °F 14.4 °F 22.5 °F
Punt de rosada: DewpointC °F 5.8 °F 8.7 °F
Humitat: Humidity % 23 % 44 %
Wind Speed: WindSpeedKMH mph 0.0 mph 7.2 mph
RĂ fegues de vent: WindSpeedGustKMH mph - -
Vent:- - SSE
Pression baro: PressurehPa in 1014.8 in -
Precipitacions: 0.0 in    
Historical Graphs
 
 
Dades de taula per Setembre 2, 2017
Temps Temperatura Punt de rosada Pression baro Vent Wind Speed RĂ fegues de vent Humitat Rainfall Rate (Hourly)
TemperatureC °F DewpointC °F PressurehPa in Calm     Humidity % HourlyPrecipMM in
00:00 16.6 °F 8.3 °F 1017.8 in WSW 3.2 mph 4.8 mph 58 % 0.0 in
00:02 21.3 °F 14.7 °F 1016.8 in ESE 3.9 mph 5.3 mph 66 % 0.0 in
00:10 16.5 °F 8.2 °F 1017.8 in Calm   1.6 mph 58 % 0.0 in
00:20 16.4 °F 8.1 °F 1017.8 in WSW 1.6 mph 3.2 mph 58 % 0.0 in
00:30 16.2 °F 7.9 °F 1017.8 in Calm     58 % 0.0 in
00:40 16.1 °F 8.1 °F 1017.8 in SW 1.6 mph 1.6 mph 59 % 0.0 in
00:50 16.0 °F 8.0 °F 1017.8 in WSW 1.6 mph 3.2 mph 59 % 0.0 in
01:00 16.0 °F 8.0 °F 1017.8 in WSW 3.2 mph 3.2 mph 59 % 0.0 in
01:10 15.8 °F 7.8 °F 1017.8 in Calm   3.2 mph 59 % 0.0 in
01:20 15.8 °F 7.8 °F 1017.8 in Calm     59 % 0.0 in
01:30 15.6 °F 7.6 °F 1018.8 in SE 1.6 mph 3.2 mph 59 % 0.0 in
01:40 15.4 °F 7.4 °F 1018.8 in SW 1.6 mph 3.2 mph 59 % 0.0 in
01:50 15.4 °F 7.7 °F 1017.8 in Calm   4.8 mph 60 % 0.0 in
02:00 15.2 °F 7.5 °F 1017.8 in WSW 1.6 mph 3.2 mph 60 % 0.0 in
02:10 15.1 °F 7.4 °F 1017.8 in WSW 1.6 mph 3.2 mph 60 % 0.0 in
02:20 15.1 °F 7.4 °F 1017.8 in Calm   3.2 mph 60 % 0.0 in
02:30 15.0 °F 7.6 °F 1017.8 in Calm   4.8 mph 61 % 0.0 in
02:40 14.9 °F 7.4 °F 1017.8 in WSW 3.2 mph 3.2 mph 61 % 0.0 in
02:50 14.9 °F 7.4 °F 1017.8 in WSW 3.2 mph 4.8 mph 61 % 0.0 in
03:00 14.7 °F 7.3 °F 1016.8 in West 1.6 mph 1.6 mph 61 % 0.0 in
03:10 14.5 °F 7.1 °F 1016.8 in SW 1.6 mph 3.2 mph 61 % 0.0 in
03:20 14.4 °F 6.9 °F 1016.8 in SW 1.6 mph 3.2 mph 61 % 0.0 in
03:30 14.4 °F 7.2 °F 1017.8 in Calm   1.6 mph 62 % 0.0 in
03:40 14.4 °F 7.2 °F 1017.8 in West 1.6 mph 1.6 mph 62 % 0.0 in
03:50 14.5 °F 7.6 °F 1017.8 in West 1.6 mph 3.2 mph 63 % 0.0 in
04:00 14.8 °F 7.6 °F 1017.8 in WSW 1.6 mph 3.2 mph 62 % 0.0 in
04:10 15.1 °F 7.9 °F 1017.8 in Calm   1.6 mph 62 % 0.0 in
04:20 16.0 °F 8.7 °F 1018.8 in SW 1.6 mph 3.2 mph 62 % 0.0 in
04:30 15.8 °F 8.3 °F 1018.8 in WSW 1.6 mph 4.8 mph 61 % 0.0 in
04:40 16.5 °F 8.9 °F 1018.8 in WSW 1.6 mph 1.6 mph 61 % 0.0 in
04:50 16.9 °F 9.1 °F 1018.8 in NW 1.6 mph 4.8 mph 60 % 0.0 in
05:00 17.1 °F 8.8 °F 1018.8 in NNE 4.8 mph 6.4 mph 58 % 0.0 in
05:10 17.2 °F 8.8 °F 1018.8 in ENE 1.6 mph 4.8 mph 58 % 0.0 in
05:20 17.5 °F 9.2 °F 1018.8 in ENE 3.2 mph 3.2 mph 58 % 0.0 in
05:30 17.9 °F 9.3 °F 1018.8 in ENE 1.6 mph 4.8 mph 57 % 0.0 in
05:40 18.1 °F 9.2 °F 1018.8 in ENE 4.8 mph 4.8 mph 56 % 0.0 in
05:50 18.4 °F 9.4 °F 1018.8 in Calm   6.4 mph 56 % 0.0 in
06:00 19.6 °F 10.1 °F 1019.9 in SE 1.6 mph 1.6 mph 54 % 0.0 in
06:10 18.9 °F 9.4 °F 1019.9 in East 4.8 mph 6.4 mph 54 % 0.0 in
06:20 19.3 °F 9.5 °F 1019.9 in NE 1.6 mph 4.8 mph 53 % 0.0 in
11:23 22.2 °F 11.0 °F 1019.9 in ENE 3.7 mph 4.2 mph 49 % 0.0 in
11:24 22.2 °F 11.0 °F 1019.9 in ENE 3.7 mph 4.2 mph 49 % 0.0 in
11:25 22.1 °F 10.6 °F 1019.9 in ENE 5.6 mph 5.6 mph 48 % 0.0 in
11:30 22.2 °F 10.7 °F 1019.9 in ESE 5.6 mph 5.6 mph 48 % 0.0 in
11:35 22.0 °F 10.5 °F 1019.9 in ENE 9.3 mph 9.3 mph 48 % 0.0 in
11:40 21.6 °F 10.1 °F 1019.9 in East 7.4 mph 7.4 mph 48 % 0.0 in
11:45 22.3 °F 10.8 °F 1019.9 in SSW 3.7 mph 3.7 mph 48 % 0.0 in
11:50 22.5 °F 10.3 °F 1019.9 in ESE 7.4 mph 7.4 mph 46 % 0.0 in
11:55 22.7 °F 10.5 °F 1019.9 in East 5.6 mph 5.6 mph 46 % 0.0 in
12:00 23.2 °F 10.9 °F 1019.9 in NW 5.6 mph 5.6 mph 46 % 0.0 in
12:05 23.8 °F 11.2 °F 1019.9 in South 5.6 mph 5.6 mph 45 % 0.0 in
12:10 23.3 °F 10.7 °F 1019.9 in SW 5.6 mph 5.6 mph 45 % 0.0 in
12:15 23.7 °F 11.1 °F 1019.9 in NE 5.6 mph 5.6 mph 45 % 0.0 in
12:20 24.3 °F 10.9 °F 1019.9 in East 5.8 mph 5.8 mph 43 % 0.0 in
12:25 23.1 °F 9.8 °F 1019.9 in NE 7.4 mph 7.4 mph 43 % 0.0 in
12:30 23.3 °F 10.0 °F 1019.9 in ENE 9.3 mph 9.3 mph 43 % 0.0 in
12:35 23.6 °F 10.3 °F 1019.9 in South 3.7 mph 3.7 mph 43 % 0.0 in
12:40 24.5 °F 10.7 °F 1018.8 in SSW 12.6 mph 12.6 mph 42 % 0.0 in
12:45 24.8 °F 11.0 °F 1018.8 in WSW 9.3 mph 9.3 mph 42 % 0.0 in
12:50 25.5 °F 11.3 °F 1018.8 in NW 4.7 mph 4.7 mph 41 % 0.0 in
12:55 25.6 °F 11.4 °F 1017.8 in NNW 5.6 mph 5.6 mph 41 % 0.0 in
13:00 25.1 °F 10.6 °F 1017.8 in NE 7.4 mph 7.4 mph 40 % 0.0 in
13:05 25.5 °F 10.9 °F 1017.8 in NNW 6.1 mph 6.1 mph 40 % 0.0 in
13:10 25.8 °F 10.0 °F 1017.8 in South 3.7 mph 3.7 mph 37 % 0.0 in
13:15 26.1 °F 10.7 °F 1017.8 in NNW 6.4 mph 6.4 mph 38 % 0.0 in
13:20 26.3 °F 10.1 °F 1017.8 in West 9.3 mph 9.3 mph 36 % 0.0 in
13:25 26.4 °F 9.7 °F 1017.8 in ESE 7.9 mph 7.9 mph 35 % 0.0 in
13:30 26.4 °F 8.4 °F 1017.8 in WNW 5.6 mph 5.6 mph 32 % 0.0 in
13:35 26.5 °F 8.0 °F 1017.8 in SW 9.5 mph 9.5 mph 31 % 0.0 in
13:40 26.2 °F 7.7 °F 1017.8 in West 13.0 mph 13.0 mph 31 % 0.0 in
13:45 26.6 °F 8.6 °F 1017.8 in SW 7.4 mph 7.4 mph 32 % 0.0 in
13:50 26.6 °F 8.1 °F 1017.8 in WSW 11.1 mph 11.1 mph 31 % 0.0 in
13:55 27.0 °F 7.9 °F 1017.8 in West 5.6 mph 6.1 mph 30 % 0.0 in
14:00 26.8 °F 7.3 °F 1017.8 in NW 13.0 mph 13.0 mph 29 % 0.0 in
14:05 27.0 °F 7.4 °F 1017.8 in South 5.6 mph 5.6 mph 29 % 0.0 in
14:10 27.3 °F 7.7 °F 1017.8 in West 11.1 mph 11.1 mph 29 % 0.0 in
14:15 27.3 °F 7.7 °F 1017.8 in WSW 13.0 mph 13.0 mph 29 % 0.0 in
14:20 27.5 °F 7.3 °F 1017.8 in West 3.7 mph 3.9 mph 28 % 0.0 in
14:25 27.7 °F 8.1 °F 1017.8 in WSW 10.3 mph 10.3 mph 29 % 0.0 in
14:30 27.5 °F 7.3 °F 1017.8 in SW 9.3 mph 9.3 mph 28 % 0.0 in
14:35 27.8 °F 7.6 °F 1017.8 in WSW 13.0 mph 13.0 mph 28 % 0.0 in
14:40 28.0 °F 7.8 °F 1016.8 in WSW 9.7 mph 9.7 mph 28 % 0.0 in
14:45 27.9 °F 7.7 °F 1016.8 in WSW 14.8 mph 14.8 mph 28 % 0.0 in
14:50 27.8 °F 7.1 °F 1016.8 in West 14.5 mph 14.5 mph 27 % 0.0 in
14:55 27.9 °F 7.2 °F 1016.8 in SSW 13.0 mph 13.0 mph 27 % 0.0 in
15:00 27.7 °F 7.0 °F 1016.8 in West 10.0 mph 10.0 mph 27 % 0.0 in
15:05 28.0 °F 7.3 °F 1016.8 in WSW 6.1 mph 6.1 mph 27 % 0.0 in
15:10 28.0 °F 7.3 °F 1016.8 in West 13.0 mph 13.0 mph 27 % 0.0 in
15:15 27.9 °F 7.2 °F 1016.8 in WSW 7.4 mph 7.4 mph 27 % 0.0 in
15:20 27.8 °F 7.1 °F 1016.8 in SW 7.4 mph 7.4 mph 27 % 0.0 in
15:25 27.9 °F 7.2 °F 1016.8 in WSW 13.0 mph 13.0 mph 27 % 0.0 in
15:30 27.7 °F 6.4 °F 1016.8 in SW 13.0 mph 13.0 mph 26 % 0.0 in
15:35 27.8 °F 6.6 °F 1016.8 in SW 9.3 mph 9.3 mph 26 % 0.0 in
15:40 28.3 °F 6.9 °F 1015.8 in SW 9.3 mph 9.3 mph 26 % 0.0 in
15:45 28.0 °F 6.1 °F 1015.8 in West 13.0 mph 13.0 mph 25 % 0.0 in
15:50 28.1 °F 6.2 °F 1015.8 in SW 18.5 mph 18.5 mph 25 % 0.0 in
15:55 28.3 °F 6.4 °F 1015.8 in SSW 11.1 mph 11.1 mph 25 % 0.0 in
16:00 28.6 °F 6.6 °F 1015.8 in SW 14.8 mph 14.8 mph 25 % 0.0 in
16:05 28.5 °F 6.6 °F 1015.8 in WSW 15.1 mph 15.1 mph 25 % 0.0 in
16:10 28.6 °F 6.6 °F 1015.8 in SW 7.4 mph 7.4 mph 25 % 0.0 in
16:15 28.5 °F 6.6 °F 1015.8 in NNW 5.8 mph 5.8 mph 25 % 0.0 in
16:20 28.8 °F 6.2 °F 1015.8 in WNW 9.3 mph 9.3 mph 24 % 0.0 in
16:25 29.0 °F 6.4 °F 1015.8 in West 5.6 mph 5.6 mph 24 % 0.0 in
16:30 28.7 °F 6.1 °F 1015.8 in SSE 14.8 mph 14.8 mph 24 % 0.0 in
16:35 28.8 °F 6.2 °F 1015.8 in WNW 5.6 mph 5.6 mph 24 % 0.0 in
16:40 29.0 °F 6.4 °F 1015.8 in SW 11.1 mph 11.1 mph 24 % 0.0 in
16:45 29.6 °F 6.9 °F 1015.8 in SSE 5.6 mph 5.6 mph 24 % 0.0 in
16:50 29.7 °F 6.9 °F 1015.8 in SSW 9.3 mph 9.3 mph 24 % 0.0 in
16:55 29.6 °F 6.9 °F 1015.8 in SW 13.0 mph 13.0 mph 24 % 0.0 in
17:00 29.5 °F 6.8 °F 1015.8 in West 13.0 mph 13.0 mph 24 % 0.0 in
17:05 29.5 °F 6.8 °F 1015.8 in SSW 13.0 mph 13.0 mph 24 % 0.0 in
17:10 29.2 °F 5.9 °F 1015.8 in SW 15.8 mph 15.8 mph 23 % 0.0 in
17:15 28.9 °F 6.3 °F 1015.8 in West 14.8 mph 14.8 mph 24 % 0.0 in
17:20 29.4 °F 6.1 °F 1015.8 in SSW 7.4 mph 7.4 mph 23 % 0.0 in
17:25 29.8 °F 7.1 °F 1014.8 in South 9.5 mph 9.5 mph 24 % 0.0 in
17:30 29.4 °F 6.1 °F 1014.8 in West 13.0 mph 13.0 mph 23 % 0.0 in
17:35 29.4 °F 6.1 °F 1014.8 in WSW 7.4 mph 7.4 mph 23 % 0.0 in
17:40 29.4 °F 6.1 °F 1015.8 in SSW 9.3 mph 9.3 mph 23 % 0.0 in
17:45 29.5 °F 6.2 °F 1015.8 in SW 13.0 mph 13.0 mph 23 % 0.0 in
17:50 29.4 °F 6.1 °F 1015.8 in WSW 9.3 mph 9.3 mph 23 % 0.0 in
17:55 29.3 °F 6.0 °F 1014.8 in SSW 13.0 mph 13.0 mph 23 % 0.0 in
18:00 29.1 °F 5.8 °F 1014.8 in West 13.0 mph 13.0 mph 23 % 0.0 in
18:05 29.3 °F 6.0 °F 1014.8 in WNW 7.4 mph 7.4 mph 23 % 0.0 in
18:10 29.2 °F 5.9 °F 1014.8 in SW 5.6 mph 5.6 mph 23 % 0.0 in
18:15 29.0 °F 5.8 °F 1014.8 in SW 13.0 mph 13.0 mph 23 % 0.0 in
18:20 28.9 °F 6.3 °F 1014.8 in West 11.1 mph 11.1 mph 24 % 0.0 in
18:25 28.9 °F 6.3 °F 1014.8 in WSW 9.3 mph 9.3 mph 24 % 0.0 in
18:30 28.7 °F 6.1 °F 1014.8 in SSW 13.0 mph 13.0 mph 24 % 0.0 in
18:35 28.1 °F 6.2 °F 1014.8 in SW 14.8 mph 14.8 mph 25 % 0.0 in
18:40 27.7 °F 6.4 °F 1014.8 in WSW 10.3 mph 10.3 mph 26 % 0.0 in
18:45 27.5 °F 6.8 °F 1014.8 in SW 13.0 mph 13.0 mph 27 % 0.0 in
18:50 27.3 °F 6.7 °F 1014.8 in SSW 5.6 mph 5.6 mph 27 % 0.0 in
18:55 27.2 °F 6.6 °F 1015.8 in SW 9.3 mph 9.3 mph 27 % 0.0 in
19:00 26.4 °F 6.4 °F 1015.8 in SSW 5.6 mph 6.4 mph 28 % 0.0 in
19:05 26.1 °F 6.7 °F 1015.8 in SSW 13.0 mph 13.0 mph 29 % 0.0 in
19:10 25.8 °F 6.4 °F 1016.8 in South 18.5 mph 18.5 mph 29 % 0.0 in
19:15 25.6 °F 6.2 °F 1016.8 in South 5.6 mph 5.6 mph 29 % 0.0 in
19:16 25.6 °F 6.2 °F 1016.8 in SW 5.8 mph 5.8 mph 29 % 0.0 in
19:21 25.6 °F 6.2 °F 1016.8 in East 4.7 mph 4.7 mph 29 % 0.0 in
19:25 19.7 °F 11.2 °F 1017.8 in NNE 4.8 mph 6.4 mph 58 % 0.0 in
19:26 25.3 °F 6.4 °F 1015.8 in ESE 9.3 mph 9.3 mph 30 % 0.0 in
19:31 25.1 °F 6.3 °F 1015.8 in East 9.5 mph 9.5 mph 30 % 0.0 in
19:35 19.8 °F 11.6 °F 1017.8 in NNE 4.8 mph 6.4 mph 59 % 0.0 in
19:36 24.8 °F 7.0 °F 1015.8 in SE 5.6 mph 5.6 mph 32 % 0.0 in
19:41 24.5 °F 6.7 °F 1014.8 in ESE 11.1 mph 11.1 mph 32 % 0.0 in
19:45 19.7 °F 11.4 °F 1018.8 in NNE 4.8 mph 6.4 mph 59 % 0.0 in
19:46 24.2 °F 6.9 °F 1014.8 in ENE 16.7 mph 16.7 mph 33 % 0.0 in
19:51 23.9 °F 7.9 °F 1014.8 in ENE 15.6 mph 15.6 mph 36 % 0.0 in
19:55 19.6 °F 11.4 °F 1018.8 in NNE 4.8 mph 6.4 mph 59 % 0.0 in
19:56 23.8 °F 8.2 °F 1015.8 in ESE 14.8 mph 14.8 mph 37 % 0.0 in
20:01 23.7 °F 8.6 °F 1015.8 in ENE 14.8 mph 14.8 mph 38 % 0.0 in
20:05 19.6 °F 11.4 °F 1018.8 in NNE 3.2 mph 8.0 mph 59 % 0.0 in
20:06 23.5 °F 8.3 °F 1015.8 in East 9.3 mph 9.3 mph 38 % 0.0 in
20:11 23.3 °F 8.6 °F 1015.8 in NNE 20.4 mph 20.4 mph 39 % 0.0 in
20:15 19.6 °F 11.4 °F 1017.8 in NNE 3.2 mph 6.4 mph 59 % 0.0 in
20:16 23.2 °F 8.8 °F 1015.8 in NE 7.9 mph 7.9 mph 40 % 0.0 in
20:21 23.0 °F 8.7 °F 1015.8 in East 11.1 mph 11.1 mph 40 % 0.0 in
20:25 19.4 °F 11.4 °F 1018.8 in NNE 1.6 mph 4.8 mph 60 % 0.0 in
20:26 22.9 °F 8.9 °F 1016.8 in ENE 11.1 mph 11.1 mph 41 % 0.0 in
20:31 22.8 °F 8.8 °F 1016.8 in ESE 9.3 mph 9.3 mph 41 % 0.0 in
20:35 19.2 °F 11.2 °F 1018.8 in NNE 1.6 mph 4.8 mph 60 % 0.0 in
20:36 22.7 °F 9.1 °F 1016.8 in ENE 16.7 mph 16.7 mph 42 % 0.0 in
20:41 22.6 °F 9.4 °F 1016.8 in ESE 9.5 mph 9.5 mph 43 % 0.0 in
20:45 19.1 °F 11.4 °F 1018.8 in Calm     61 % 0.0 in
20:46 22.5 °F 9.3 °F 1016.8 in NE 11.1 mph 11.1 mph 43 % 0.0 in
20:51 22.3 °F 9.4 °F 1016.8 in ENE 11.1 mph 11.1 mph 44 % 0.0 in
20:55 19.1 °F 11.4 °F 1017.8 in NNE 3.2 mph 3.2 mph 61 % 0.0 in
20:56 22.1 °F 9.6 °F 1017.8 in ENE 7.4 mph 7.4 mph 45 % 0.0 in
21:01 22.0 °F 9.5 °F 1017.8 in NE 7.4 mph 7.4 mph 45 % 0.0 in
21:05 19.1 °F 11.4 °F 1017.8 in NNE 4.8 mph 4.8 mph 61 % 0.0 in
21:06 21.8 °F 10.0 °F 1017.8 in NNE 9.3 mph 9.3 mph 47 % 0.0 in
21:11 21.7 °F 9.9 °F 1017.8 in NE 5.8 mph 5.8 mph 47 % 0.0 in
21:15 19.0 °F 11.3 °F 1017.8 in NNE 3.2 mph 4.8 mph 61 % 0.0 in
21:16 21.6 °F 9.8 °F 1017.8 in East 9.3 mph 9.3 mph 47 % 0.0 in
21:21 21.4 °F 9.9 °F 1017.8 in NNE 9.3 mph 9.3 mph 48 % 0.0 in
21:25 18.7 °F 11.5 °F 1017.8 in NNE 1.6 mph 3.2 mph 63 % 0.0 in
21:26 21.3 °F 9.8 °F 1017.8 in ENE 13.0 mph 13.0 mph 48 % 0.0 in
21:31 21.2 °F 9.7 °F 1017.8 in NNE 9.3 mph 9.3 mph 48 % 0.0 in
21:35 18.5 °F 11.3 °F 1017.8 in Calm   3.2 mph 63 % 0.0 in
21:36 21.0 °F 9.6 °F 1017.8 in NNE 9.3 mph 9.3 mph 48 % 0.0 in
21:41 20.9 °F 9.8 °F 1017.8 in NNE 11.9 mph 11.9 mph 49 % 0.0 in
21:45 18.4 °F 11.2 °F 1017.8 in NNE 3.2 mph 4.8 mph 63 % 0.0 in
21:46 20.9 °F 10.1 °F 1017.8 in ENE 9.3 mph 9.3 mph 50 % 0.0 in
21:51 20.8 °F 10.0 °F 1017.8 in NE 14.5 mph 14.5 mph 50 % 0.0 in
21:55 18.3 °F 11.1 °F 1017.8 in NNE 1.6 mph 3.2 mph 63 % 0.0 in
21:56 20.7 °F 9.9 °F 1018.8 in ENE 11.1 mph 11.1 mph 50 % 0.0 in
22:01 20.6 °F 9.8 °F 1018.8 in NNE 9.3 mph 9.3 mph 50 % 0.0 in
22:05 18.2 °F 11.1 °F 1017.8 in NE 1.6 mph 4.8 mph 63 % 0.0 in
22:06 20.6 °F 10.1 °F 1018.8 in NE 9.3 mph 9.3 mph 51 % 0.0 in
22:11 20.5 °F 10.0 °F 1017.8 in ENE 9.3 mph 9.3 mph 51 % 0.0 in
22:15 18.0 °F 10.8 °F 1017.8 in NNE 1.6 mph 6.4 mph 63 % 0.0 in
22:16 20.5 °F 10.0 °F 1017.8 in NE 7.4 mph 7.4 mph 51 % 0.0 in
22:21 20.4 °F 9.9 °F 1017.8 in NNE 9.3 mph 9.3 mph 51 % 0.0 in
22:25 17.8 °F 10.7 °F 1017.8 in North 1.6 mph 6.4 mph 63 % 0.0 in
22:26 20.4 °F 10.2 °F 1017.8 in NNE 9.3 mph 9.3 mph 52 % 0.0 in
22:31 20.3 °F 10.1 °F 1017.8 in NNE 9.3 mph 9.3 mph 52 % 0.0 in
22:35 17.6 °F 10.4 °F 1017.8 in NW 1.6 mph 3.2 mph 63 % 0.0 in
22:36 20.3 °F 10.1 °F 1017.8 in NNW 7.4 mph 7.4 mph 52 % 0.0 in
22:41 20.2 °F 10.0 °F 1018.8 in ENE 7.4 mph 7.4 mph 52 % 0.0 in
22:45 17.5 °F 10.6 °F 1017.8 in Calm   1.6 mph 64 % 0.0 in
22:46 20.2 °F 10.3 °F 1018.8 in NNE 7.4 mph 7.4 mph 53 % 0.0 in
22:51 20.2 °F 10.3 °F 1018.8 in NNE 5.6 mph 5.8 mph 53 % 0.0 in
22:55 17.3 °F 10.4 °F 1017.8 in Calm   1.6 mph 64 % 0.0 in
22:56 20.1 °F 10.2 °F 1018.8 in North 7.4 mph 7.4 mph 53 % 0.0 in
23:01 20.1 °F 10.5 °F 1018.8 in NNE 5.6 mph 5.6 mph 54 % 0.0 in
23:05 17.2 °F 10.3 °F 1017.8 in West 1.6 mph 1.6 mph 64 % 0.0 in
23:06 20.1 °F 10.5 °F 1018.8 in NNE 7.4 mph 7.4 mph 54 % 0.0 in
23:11 20.1 °F 10.5 °F 1018.8 in NNW 9.3 mph 9.3 mph 54 % 0.0 in
23:15 17.1 °F 10.4 °F 1017.8 in Calm   1.6 mph 65 % 0.0 in
23:16 20.0 °F 10.4 °F 1018.8 in NNE 9.3 mph 9.3 mph 54 % 0.0 in
23:21 20.0 °F 10.7 °F 1018.8 in NNE 9.3 mph 9.3 mph 55 % 0.0 in
23:25 16.9 °F 10.5 °F 1017.8 in NW 1.6 mph 3.2 mph 66 % 0.0 in
23:26 20.0 °F 10.7 °F 1018.8 in NNE 11.1 mph 11.1 mph 55 % 0.0 in
23:31 20.0 °F 10.7 °F 1018.8 in NNE 9.3 mph 9.3 mph 55 % 0.0 in
23:36 19.9 °F 10.8 °F 1018.8 in NNE 9.3 mph 9.3 mph 56 % 0.0 in
23:41 19.9 °F 10.8 °F 1018.8 in NE 7.4 mph 7.4 mph 56 % 0.0 in
23:45 16.5 °F 10.6 °F 1017.8 in WSW 1.6 mph 3.2 mph 68 % 0.0 in
23:46 19.9 °F 10.8 °F 1018.8 in NNE 7.4 mph 7.4 mph 56 % 0.0 in
23:51 19.9 °F 10.8 °F 1018.8 in NNE 7.4 mph 7.4 mph 56 % 0.0 in
23:55 16.3 °F 10.4 °F 1016.8 in WSW 1.6 mph 3.2 mph 68 % 0.0 in
23:56 19.8 °F 10.8 °F 1018.8 in NE 7.4 mph 7.4 mph 56 % 0.0 in
Meteo Sesrovires
Elogis d' Weather Underground - 1.5 mb

Guio original per  Jim McMurry - jmcmurry@mwt.net Adaptat per a la plantilla per  Wim van der Kuil - Leuven-Template.eu

Trobareu la nostra informacio del temps tambe a:

Weather Underground

AWEKAS